Time;durP1;ratioP1;P1;durP2;ratioP2;P2;SDS_P1;SDS_P2;PMS_P1;PMS_P2;Temp;Humidity;BMP_temperature;BMP_pressure;BME280_temperature;BME280_humidity;BME280_pressure;Samples;Min_cycle;Max_cycle;Signal;HPM_P1;HPM_P2
2021/12/26 00:00:45;;;;;;;;;;;;;;;;;;5079732;28;19932;-71
2021/12/26 00:03:19;;;;;;;;;;;;;;;;;;5084326;28;19993;-71
2021/12/26 00:05:48;;;;;;;;;;;;;;;;;;5082549;28;19924;-71
2021/12/26 00:08:19;;;;;;;;;;;;;;;;;;5083432;28;19932;-71
2021/12/26 00:10:51;;;;;;;;;;;;;;;;;;5094621;28;20044;-72
2021/12/26 00:13:19;;;;;;;;;;;;;;;;;;5094629;28;20330;-71
2021/12/26 00:15:49;;;;;;;;;;;;;;;;;;5082591;28;19928;-71
2021/12/26 00:18:18;;;;;;;;;;;;;;;;;;5076492;28;20465;-71
2021/12/26 00:20:50;;;;;;;;;;;;;;;;;;5074646;28;19928;-71
2021/12/26 00:23:21;;;;;;;;;;;;;;;;;;5081418;28;20358;-71
2021/12/26 00:25:52;;;;;;;;;;;;;;;;;;5083682;28;19972;-71
2021/12/26 00:28:22;;;;;;;;;;;;;;;;;;5076319;28;20456;-71
2021/12/26 00:30:53;;;;;;;;;;;;;;;;;;5082579;28;20356;-71
2021/12/26 00:33:23;;;;;;;;;;;;;;;;;;5082973;28;20352;-71
2021/12/26 00:35:52;;;;;;;;;;;;;;;;;;5063630;28;19924;-71
2021/12/26 00:38:23;;;;;;;;;;;;;;;;;;5055541;28;19944;-71
2021/12/26 00:41:02;;;;;;;;;;;;;;;;;;5084347;28;19924;-71
2021/12/26 00:43:31;;;;;;;;;;;;;;;;;;5086985;28;19932;-71
2021/12/26 00:46:01;;;;;;;;;;;;;;;;;;5070593;28;19942;-71
2021/12/26 00:48:35;;;;;;;;;;;;;;;;;;5075574;28;19942;-71
2021/12/26 00:51:06;;;;;;;;;;;;;;;;;;5084569;28;19924;-71
2021/12/26 00:53:36;;;;;;;;;;;;;;;;;;5070729;28;19924;-71
2021/12/26 00:56:03;;;;;;;;;;;;;;;;;;5088273;28;19924;-71
2021/12/26 00:58:37;;;;;;;;;;;;;;;;;;5072963;28;20373;-71
2021/12/26 01:01:09;;;;;;;;;;;;;;;;;;5096102;28;20368;-71
2021/12/26 01:03:43;;;;;;;;;;;;;;;;;;5088929;28;19924;-72
2021/12/26 01:06:14;;;;;;;;;;;;;;;;;;5080317;28;19943;-71
2021/12/26 01:08:47;;;;;;;;;;;;;;;;;;5096561;28;19931;-71
2021/12/26 01:11:23;;;;;;;;;;;;;;;;;;5087374;28;20399;-71
2021/12/26 01:13:57;;;;;;;;;;;;;;;;;;5091983;28;19925;-71
2021/12/26 01:16:27;;;;;;;;;;;;;;;;;;5089806;28;20659;-72
2021/12/26 01:19:15;;;;;;;;;;;;;;;;;;5094460;28;20342;-71
2021/12/26 01:21:42;;;;;;;;;;;;;;;;;;5083513;28;19931;-71
2021/12/26 01:24:11;;;;;;;;;;;;;;;;;;5075910;28;19981;-71
2021/12/26 01:26:43;;;;;;;;;;;;;;;;;;5089577;28;19974;-71
2021/12/26 01:29:12;;;;;;;;;;;;;;;;;;5093483;28;20270;-71
2021/12/26 01:31:43;;;;;;;;;;;;;;;;;;5094085;28;20386;-71
2021/12/26 01:34:15;;;;;;;;;;;;;;;;;;5092289;28;20352;-71
2021/12/26 01:36:48;;;;;;;;;;;;;;;;;;5090288;28;19997;-71
2021/12/26 01:39:18;;;;;;;;;;;;;;;;;;5075278;28;19931;-71
2021/12/26 01:41:49;;;;;;;;;;;;;;;;;;5089867;28;20291;-71
2021/12/26 01:44:19;;;;;;;;;;;;;;;;;;5091574;28;19976;-71
2021/12/26 01:46:50;;;;;;;;;;;;;;;;;;5096610;28;19928;-71
2021/12/26 01:49:24;;;;;;;;;;;;;;;;;;5095494;28;20325;-71
2021/12/26 01:51:54;;;;;;;;;;;;;;;;;;5068919;28;19924;-71
2021/12/26 01:54:31;;;;;;;;;;;;;;;;;;5091261;28;20380;-71
2021/12/26 01:56:59;;;;;;;;;;;;;;;;;;5082589;28;20000;-70
2021/12/26 01:59:30;;;;;;;;;;;;;;;;;;5082123;28;20342;-70
2021/12/26 02:02:00;;;;;;;;;;;;;;;;;;5091226;28;19996;-70
2021/12/26 02:04:30;;;;;;;;;;;;;;;;;;5091258;28;19954;-70
2021/12/26 02:06:59;;;;;;;;;;;;;;;;;;5076204;28;19928;-70
2021/12/26 02:09:33;;;;;;;;;;;;;;;;;;5080764;28;20209;-71
2021/12/26 02:12:02;;;;;;;;;;;;;;;;;;5086723;28;19924;-71
2021/12/26 02:14:32;;;;;;;;;;;;;;;;;;5088378;28;19932;-71
2021/12/26 02:17:00;;;;;;;;;;;;;;;;;;5087759;28;20376;-71
2021/12/26 02:19:31;;;;;;;;;;;;;;;;;;5074442;28;19924;-71
2021/12/26 02:25:06;;;;;;;;;;;;;;;;;;5086082;28;19957;-71
2021/12/26 02:27:33;;;;;;;;;;;;;;;;;;5085642;28;19924;-71
2021/12/26 02:30:20;;;;;;;;;;;;;;;;;;5085647;28;19928;-71
2021/12/26 02:32:57;;;;;;;;;;;;;;;;;;5090523;28;20318;-71
2021/12/26 02:35:36;;;;;;;;;;;;;;;;;;5071989;28;19924;-71
2021/12/26 02:38:07;;;;;;;;;;;;;;;;;;5083607;28;19963;-70
2021/12/26 02:40:34;;;;;;;;;;;;;;;;;;5077976;28;19924;-70
2021/12/26 02:43:03;;;;;;;;;;;;;;;;;;5087637;28;20269;-70
2021/12/26 02:45:31;;;;;;;;;;;;;;;;;;5086652;28;20387;-71
2021/12/26 02:48:00;;;;;;;;;;;;;;;;;;5090795;28;20303;-71
2021/12/26 02:50:28;;;;;;;;;;;;;;;;;;5086915;28;19989;-71
2021/12/26 02:52:57;;;;;;;;;;;;;;;;;;5090178;28;19924;-71
2021/12/26 02:55:29;;;;;;;;;;;;;;;;;;5096124;28;20311;-71
2021/12/26 02:58:02;;;;;;;;;;;;;;;;;;5089586;28;20330;-71
2021/12/26 03:00:51;;;;;;;;;;;;;;;;;;5088790;28;19928;-71
2021/12/26 03:03:22;;;;;;;;;;;;;;;;;;5083460;28;20067;-71
2021/12/26 03:05:53;;;;;;;;;;;;;;;;;;5087006;28;20467;-71
2021/12/26 03:08:36;;;;;;;;;;;;;;;;;;5084705;28;20025;-71
2021/12/26 03:11:06;;;;;;;;;;;;;;;;;;5083452;28;19935;-70
2021/12/26 03:13:36;;;;;;;;;;;;;;;;;;5086500;28;19928;-70
2021/12/26 03:16:07;;;;;;;;;;;;;;;;;;5065151;28;19924;-71
2021/12/26 03:18:36;;;;;;;;;;;;;;;;;;5088378;28;19928;-71
2021/12/26 03:21:08;;;;;;;;;;;;;;;;;;5086162;28;19999;-71
2021/12/26 03:23:37;;;;;;;;;;;;;;;;;;5080456;28;19931;-71
2021/12/26 03:26:09;;;;;;;;;;;;;;;;;;5071180;28;19962;-71
2021/12/26 03:28:39;;;;;;;;;;;;;;;;;;5081976;28;19964;-71
2021/12/26 03:31:08;;;;;;;;;;;;;;;;;;5078251;28;20365;-71
2021/12/26 03:33:39;;;;;;;;;;;;;;;;;;5086165;28;20267;-71
2021/12/26 03:36:09;;;;;;;;;;;;;;;;;;5085434;28;20334;-71
2021/12/26 03:38:38;;;;;;;;;;;;;;;;;;5076109;28;19925;-70
2021/12/26 03:41:08;;;;;;;;;;;;;;;;;;5066251;28;20580;-70
2021/12/26 03:43:39;;;;;;;;;;;;;;;;;;5087274;28;19977;-71
2021/12/26 03:46:13;;;;;;;;;;;;;;;;;;5081629;28;19936;-71
2021/12/26 03:48:43;;;;;;;;;;;;;;;;;;5091058;28;19924;-71
2021/12/26 03:51:11;;;;;;;;;;;;;;;;;;5083618;28;20526;-71
2021/12/26 03:53:43;;;;;;;;;;;;;;;;;;5087477;28;19958;-71
2021/12/26 03:56:10;;;;;;;;;;;;;;;;;;5064636;28;19981;-72
2021/12/26 03:58:42;;;;;;;;;;;;;;;;;;5085729;28;20317;-72
2021/12/26 04:01:11;;;;;;;;;;;;;;;;;;5085752;28;19985;-72
2021/12/26 04:03:42;;;;;;;;;;;;;;;;;;5086137;28;20260;-72
2021/12/26 04:06:12;;;;;;;;;;;;;;;;;;5078899;28;19993;-71
2021/12/26 04:08:43;;;;;;;;;;;;;;;;;;5085833;28;19984;-72
2021/12/26 04:11:13;;;;;;;;;;;;;;;;;;5079445;28;19924;-72
2021/12/26 04:13:42;;;;;;;;;;;;;;;;;;5083009;28;19932;-72
2021/12/26 04:16:14;;;;;;;;;;;;;;;;;;5074729;28;19924;-71
2021/12/26 04:18:43;;;;;;;;;;;;;;;;;;5085848;28;20328;-71
2021/12/26 04:21:15;;;;;;;;;;;;;;;;;;5085259;28;20353;-71
2021/12/26 04:23:42;;;;;;;;;;;;;;;;;;5091986;28;19942;-71
2021/12/26 04:26:10;;;;;;;;;;;;;;;;;;5082479;28;19924;-71
2021/12/26 04:28:41;;;;;;;;;;;;;;;;;;5083910;28;20369;-71
2021/12/26 04:31:15;;;;;;;;;;;;;;;;;;5081566;28;19980;-71
2021/12/26 04:33:46;;;;;;;;;;;;;;;;;;5086777;28;19934;-71
2021/12/26 04:36:16;;;;;;;;;;;;;;;;;;5083266;28;19974;-71
2021/12/26 04:38:46;;;;;;;;;;;;;;;;;;5082497;28;19924;-71
2021/12/26 04:41:16;;;;;;;;;;;;;;;;;;5081014;28;19928;-71
2021/12/26 04:43:46;;;;;;;;;;;;;;;;;;5087575;28;19943;-71
2021/12/26 04:46:16;;;;;;;;;;;;;;;;;;5083156;28;19958;-71
2021/12/26 04:48:47;;;;;;;;;;;;;;;;;;5080600;28;19931;-71
2021/12/26 04:51:20;;;;;;;;;;;;;;;;;;5083293;28;19928;-71
2021/12/26 04:53:49;;;;;;;;;;;;;;;;;;5086465;28;19950;-70
2021/12/26 04:56:18;;;;;;;;;;;;;;;;;;5066419;28;19924;-71
2021/12/26 04:58:45;;;;;;;;;;;;;;;;;;5087540;28;19989;-71
2021/12/26 05:01:17;;;;;;;;;;;;;;;;;;5075145;28;19925;-71
2021/12/26 05:03:56;;;;;;;;;;;;;;;;;;5083215;28;19923;-71
2021/12/26 05:06:24;;;;;;;;;;;;;;;;;;5092134;28;19924;-71
2021/12/26 05:08:56;;;;;;;;;;;;;;;;;;5085939;28;19932;-71
2021/12/26 05:11:25;;;;;;;;;;;;;;;;;;5074652;28;19940;-72
2021/12/26 05:13:58;;;;;;;;;;;;;;;;;;5067776;28;19924;-71
2021/12/26 05:16:34;;;;;;;;;;;;;;;;;;5066725;28;19932;-72
2021/12/26 05:19:05;;;;;;;;;;;;;;;;;;5067131;28;19924;-72
2021/12/26 05:21:34;;;;;;;;;;;;;;;;;;5066902;28;19940;-72
2021/12/26 05:24:01;;;;;;;;;;;;;;;;;;5065827;28;19928;-71
2021/12/26 05:26:31;;;;;;;;;;;;;;;;;;5066116;28;19939;-70
2021/12/26 05:29:02;;;;;;;;;;;;;;;;;;5085573;28;19924;-71
2021/12/26 05:31:44;;;;;;;;;;;;;;;;;;5089205;28;19964;-71
2021/12/26 05:34:13;;;;;;;;;;;;;;;;;;5083691;28;19935;-71
2021/12/26 05:36:43;;;;;;;;;;;;;;;;;;5087962;28;20572;-71
2021/12/26 05:39:13;;;;;;;;;;;;;;;;;;5083313;28;19932;-71
2021/12/26 05:41:42;;;;;;;;;;;;;;;;;;5071946;28;19928;-71
2021/12/26 05:44:12;;;;;;;;;;;;;;;;;;5087062;28;19924;-71
2021/12/26 05:46:45;;;;;;;;;;;;;;;;;;5087198;28;20372;-71
2021/12/26 05:49:16;;;;;;;;;;;;;;;;;;5078587;28;19950;-71
2021/12/26 05:51:45;;;;;;;;;;;;;;;;;;5083989;28;19934;-71
2021/12/26 05:54:20;;;;;;;;;;;;;;;;;;5088429;28;20404;-71
2021/12/26 05:56:51;;;;;;;;;;;;;;;;;;5090923;28;20540;-71
2021/12/26 05:59:22;;;;;;;;;;;;;;;;;;5090497;28;19924;-71
2021/12/26 06:01:51;;;;;;;;;;;;;;;;;;5090004;28;19924;-71
2021/12/26 06:04:24;;;;;;;;;;;;;;;;;;5079007;28;19931;-71
2021/12/26 06:06:55;;;;;;;;;;;;;;;;;;5081752;28;19932;-71
2021/12/26 06:09:25;;;;;;;;;;;;;;;;;;5090135;28;19959;-71
2021/12/26 06:11:55;;;;;;;;;;;;;;;;;;5090718;28;19924;-71
2021/12/26 06:14:25;;;;;;;;;;;;;;;;;;5082960;28;19928;-71
2021/12/26 06:16:55;;;;;;;;;;;;;;;;;;5091203;28;19931;-71
2021/12/26 06:19:23;;;;;;;;;;;;;;;;;;5090478;28;19923;-71
2021/12/26 06:21:52;;;;;;;;;;;;;;;;;;5082140;28;20317;-71
2021/12/26 06:24:25;;;;;;;;;;;;;;;;;;5098014;28;19945;-71
2021/12/26 06:26:54;;;;;;;;;;;;;;;;;;5067811;28;19924;-71
2021/12/26 06:29:27;;;;;;;;;;;;;;;;;;5088909;28;19985;-71
2021/12/26 06:31:55;;;;;;;;;;;;;;;;;;5088985;28;19924;-71
2021/12/26 06:34:27;;;;;;;;;;;;;;;;;;5089718;28;19933;-71
2021/12/26 06:36:56;;;;;;;;;;;;;;;;;;5088116;28;19924;-71
2021/12/26 06:39:26;;;;;;;;;;;;;;;;;;5086277;28;19932;-71
2021/12/26 06:41:57;;;;;;;;;;;;;;;;;;5079010;28;19936;-71
2021/12/26 06:44:38;;;;;;;;;;;;;;;;;;5088563;28;19924;-71
2021/12/26 06:47:13;;;;;;;;;;;;;;;;;;5101302;28;20033;-71
2021/12/26 06:49:44;;;;;;;;;;;;;;;;;;5069033;28;19928;-71
2021/12/26 06:52:14;;;;;;;;;;;;;;;;;;5082521;28;19924;-70
2021/12/26 06:54:44;;;;;;;;;;;;;;;;;;5054099;28;20452;-71
2021/12/26 06:57:13;;;;;;;;;;;;;;;;;;5090863;28;19928;-71
2021/12/26 06:59:47;;;;;;;;;;;;;;;;;;5087624;28;20329;-71
2021/12/26 07:02:16;;;;;;;;;;;;;;;;;;5084034;28;19924;-71
2021/12/26 07:04:47;;;;;;;;;;;;;;;;;;5072529;28;19924;-71
2021/12/26 07:07:14;;;;;;;;;;;;;;;;;;5089623;28;19924;-71
2021/12/26 07:09:46;;;;;;;;;;;;;;;;;;5087208;28;19951;-71
2021/12/26 07:12:17;;;;;;;;;;;;;;;;;;5086851;28;20331;-71
2021/12/26 07:14:53;;;;;;;;;;;;;;;;;;5082600;28;20310;-71
2021/12/26 07:17:22;;;;;;;;;;;;;;;;;;5087835;28;19931;-72
2021/12/26 07:19:53;;;;;;;;;;;;;;;;;;5087179;28;20282;-71
2021/12/26 07:22:23;;;;;;;;;;;;;;;;;;5087136;28;20108;-71
2021/12/26 07:24:53;;;;;;;;;;;;;;;;;;5087446;28;19972;-71
2021/12/26 07:27:20;;;;;;;;;;;;;;;;;;5072410;28;19928;-71
2021/12/26 07:29:53;;;;;;;;;;;;;;;;;;5089605;28;19924;-71
2021/12/26 07:32:23;;;;;;;;;;;;;;;;;;5093205;28;20328;-69
2021/12/26 07:34:52;;;;;;;;;;;;;;;;;;5086508;28;19934;-69
2021/12/26 07:37:21;;;;;;;;;;;;;;;;;;5096690;28;19924;-68
2021/12/26 07:39:50;;;;;;;;;;;;;;;;;;5083066;28;19942;-69
2021/12/26 07:42:19;;;;;;;;;;;;;;;;;;5076951;28;20519;-73
2021/12/26 07:44:48;;;;;;;;;;;;;;;;;;5084772;28;20291;-72
2021/12/26 07:47:17;;;;;;;;;;;;;;;;;;5098130;28;19931;-70
2021/12/26 07:49:47;;;;;;;;;;;;;;;;;;5096183;28;19924;-69
2021/12/26 07:52:20;;;;;;;;;;;;;;;;;;5090507;28;19931;-68
2021/12/26 07:54:52;;;;;;;;;;;;;;;;;;5085636;28;19924;-69
2021/12/26 07:57:20;;;;;;;;;;;;;;;;;;5085843;28;19984;-71
2021/12/26 07:59:51;;;;;;;;;;;;;;;;;;5060671;28;20045;-72
2021/12/26 08:02:20;;;;;;;;;;;;;;;;;;5077146;28;19931;-68
2021/12/26 08:04:54;;;;;;;;;;;;;;;;;;5086630;28;19939;-69
2021/12/26 08:07:23;;;;;;;;;;;;;;;;;;5074544;28;19933;-70
2021/12/26 08:09:52;;;;;;;;;;;;;;;;;;5067699;28;20265;-69
2021/12/26 08:12:22;;;;;;;;;;;;;;;;;;5080975;28;20177;-69
2021/12/26 08:14:53;;;;;;;;;;;;;;;;;;5080862;28;19932;-69
2021/12/26 08:17:24;;;;;;;;;;;;;;;;;;5077321;28;19924;-69
2021/12/26 08:19:52;;;;;;;;;;;;;;;;;;5083053;28;19993;-71
2021/12/26 08:22:21;;;;;;;;;;;;;;;;;;5079351;28;20313;-68
2021/12/26 08:24:50;;;;;;;;;;;;;;;;;;5074235;28;19935;-67
2021/12/26 08:27:21;;;;;;;;;;;;;;;;;;5080995;28;19924;-69
2021/12/26 08:29:50;;;;;;;;;;;;;;;;;;5086919;28;19924;-68
2021/12/26 08:32:21;;;;;;;;;;;;;;;;;;5082254;28;19959;-68
2021/12/26 08:34:52;;;;;;;;;;;;;;;;;;5086281;28;20468;-68
2021/12/26 08:37:23;;;;;;;;;;;;;;;;;;5084779;28;19954;-69
2021/12/26 08:39:55;;;;;;;;;;;;;;;;;;5083946;28;19924;-72
2021/12/26 08:42:27;;;;;;;;;;;;;;;;;;5082116;28;19942;-72
2021/12/26 08:44:56;;;;;;;;;;;;;;;;;;5084340;28;19981;-72
2021/12/26 08:47:29;;;;;;;;;;;;;;;;;;5085335;28;19924;-72
2021/12/26 08:50:03;;;;;;;;;;;;;;;;;;5087050;28;19931;-72
2021/12/26 08:52:30;;;;;;;;;;;;;;;;;;5083498;28;19924;-72
2021/12/26 08:55:00;;;;;;;;;;;;;;;;;;5084670;28;19924;-72
2021/12/26 08:57:32;;;;;;;;;;;;;;;;;;5080598;28;20345;-72
2021/12/26 09:00:00;;;;;;;;;;;;;;;;;;5087095;28;19923;-71
2021/12/26 09:02:31;;;;;;;;;;;;;;;;;;5064844;28;19990;-68
2021/12/26 09:05:04;;;;;;;;;;;;;;;;;;5085504;28;19984;-68
2021/12/26 09:07:34;;;;;;;;;;;;;;;;;;5085475;28;19935;-68
2021/12/26 09:10:06;;;;;;;;;;;;;;;;;;5083554;28;19928;-68
2021/12/26 09:12:42;;;;;;;;;;;;;;;;;;5085236;28;19985;-71
2021/12/26 09:15:12;;;;;;;;;;;;;;;;;;5076243;28;20307;-71
2021/12/26 09:17:56;;;;;;;;;;;;;;;;;;5075977;28;19964;-71
2021/12/26 09:20:26;;;;;;;;;;;;;;;;;;5086676;28;19969;-71
2021/12/26 09:22:57;;;;;;;;;;;;;;;;;;5082717;28;19930;-71
2021/12/26 09:25:26;;;;;;;;;;;;;;;;;;5088810;28;19927;-69
2021/12/26 09:27:56;;;;;;;;;;;;;;;;;;5068313;28;19924;-68
2021/12/26 09:30:28;;;;;;;;;;;;;;;;;;5091314;28;20327;-68
2021/12/26 09:32:55;;;;;;;;;;;;;;;;;;5073574;28;19932;-68
2021/12/26 09:35:23;;;;;;;;;;;;;;;;;;5092052;28;19924;-66
2021/12/26 09:37:54;;;;;;;;;;;;;;;;;;5088904;28;19923;-68
2021/12/26 09:40:23;;;;;;;;;;;;;;;;;;5083723;28;19928;-68
2021/12/26 09:42:56;;;;;;;;;;;;;;;;;;5080256;28;20233;-69
2021/12/26 09:45:27;;;;;;;;;;;;;;;;;;5092919;28;19980;-69
2021/12/26 09:47:58;;;;;;;;;;;;;;;;;;5089845;28;20540;-69
2021/12/26 09:50:28;;;;;;;;;;;;;;;;;;5076178;28;19924;-72
2021/12/26 09:52:58;;;;;;;;;;;;;;;;;;5090144;28;19923;-72
2021/12/26 09:55:29;;;;;;;;;;;;;;;;;;5087909;28;19924;-72
2021/12/26 09:58:02;;;;;;;;;;;;;;;;;;5090812;28;19981;-73
2021/12/26 10:00:32;;;;;;;;;;;;;;;;;;5071861;28;19957;-69
2021/12/26 10:03:03;;;;;;;;;;;;;;;;;;5084662;28;19925;-69
2021/12/26 10:05:31;;;;;;;;;;;;;;;;;;5087321;28;20101;-71
2021/12/26 10:08:00;;;;;;;;;;;;;;;;;;5088689;28;20298;-71
2021/12/26 10:10:28;;;;;;;;;;;;;;;;;;5086627;28;19934;-69
2021/12/26 10:12:57;;;;;;;;;;;;;;;;;;5081207;28;19936;-69
2021/12/26 10:15:30;;;;;;;;;;;;;;;;;;5057290;28;19932;-68
2021/12/26 10:18:01;;;;;;;;;;;;;;;;;;5065771;28;20308;-69
2021/12/26 10:20:30;;;;;;;;;;;;;;;;;;5068597;28;19924;-72
2021/12/26 10:22:59;;;;;;;;;;;;;;;;;;5068830;28;19932;-72
2021/12/26 10:25:29;;;;;;;;;;;;;;;;;;5056688;28;20502;-72
2021/12/26 10:28:01;;;;;;;;;;;;;;;;;;5066066;28;20394;-72
2021/12/26 10:30:32;;;;;;;;;;;;;;;;;;5064842;28;20633;-72
2021/12/26 10:32:59;;;;;;;;;;;;;;;;;;5065394;28;19973;-72
2021/12/26 10:35:30;;;;;;;;;;;;;;;;;;5071006;28;19931;-72
2021/12/26 10:38:00;;;;;;;;;;;;;;;;;;5066130;28;19964;-72
2021/12/26 10:40:36;;;;;;;;;;;;;;;;;;5055311;28;19924;-71
2021/12/26 10:43:08;;;;;;;;;;;;;;;;;;5067173;28;19925;-72
2021/12/26 10:45:41;;;;;;;;;;;;;;;;;;5064608;28;19925;-69
2021/12/26 10:48:11;;;;;;;;;;;;;;;;;;5062332;28;20430;-69
2021/12/26 10:50:45;;;;;;;;;;;;;;;;;;5049299;28;20183;-68
2021/12/26 10:53:14;;;;;;;;;;;;;;;;;;5067771;28;19924;-68
2021/12/26 10:55:51;;;;;;;;;;;;;;;;;;5068970;28;19928;-71
2021/12/26 10:58:22;;;;;;;;;;;;;;;;;;5062952;28;19935;-71
2021/12/26 11:00:52;;;;;;;;;;;;;;;;;;5056245;28;19977;-69
2021/12/26 11:03:24;;;;;;;;;;;;;;;;;;5066062;28;19929;-68
2021/12/26 11:06:06;;;;;;;;;;;;;;;;;;5067738;28;20354;-72
2021/12/26 11:08:39;;;;;;;;;;;;;;;;;;5067673;28;19931;-72
2021/12/26 11:11:10;;;;;;;;;;;;;;;;;;5065084;28;20416;-71
2021/12/26 11:13:38;;;;;;;;;;;;;;;;;;5064741;28;19928;-72
2021/12/26 11:16:08;;;;;;;;;;;;;;;;;;5060094;28;19924;-72
2021/12/26 11:18:39;;;;;;;;;;;;;;;;;;5083226;28;19984;-72
2021/12/26 11:21:08;;;;;;;;;;;;;;;;;;5085969;28;19924;-69
2021/12/26 11:23:40;;;;;;;;;;;;;;;;;;5088155;28;20400;-69
2021/12/26 11:26:23;;;;;;;;;;;;;;;;;;5081027;28;19963;-71
2021/12/26 11:28:52;;;;;;;;;;;;;;;;;;5083219;28;20403;-71
2021/12/26 11:31:20;;;;;;;;;;;;;;;;;;5087995;28;19924;-68
2021/12/26 11:33:54;;;;;;;;;;;;;;;;;;5087998;28;20390;-69
2021/12/26 11:36:25;;;;;;;;;;;;;;;;;;5083529;28;20123;-67
2021/12/26 11:38:55;;;;;;;;;;;;;;;;;;5089915;28;19934;-68
2021/12/26 11:41:27;;;;;;;;;;;;;;;;;;5085072;28;19924;-71
2021/12/26 11:43:58;;;;;;;;;;;;;;;;;;5088958;28;19955;-72
2021/12/26 11:46:28;;;;;;;;;;;;;;;;;;5080928;28;20268;-68
2021/12/26 11:48:59;;;;;;;;;;;;;;;;;;5088186;28;19935;-68
2021/12/26 11:51:30;;;;;;;;;;;;;;;;;;5074337;28;19928;-68
2021/12/26 11:54:02;;;;;;;;;;;;;;;;;;5071119;28;19924;-68
2021/12/26 11:56:30;;;;;;;;;;;;;;;;;;5080585;28;19931;-70
2021/12/26 11:59:00;;;;;;;;;;;;;;;;;;5079272;28;20388;-70
2021/12/26 12:01:29;;;;;;;;;;;;;;;;;;5071093;28;19924;-68
2021/12/26 12:03:57;;;;;;;;;;;;;;;;;;5072956;28;19962;-68
2021/12/26 12:06:26;;;;;;;;;;;;;;;;;;5077883;28;19932;-68
2021/12/26 12:08:56;;;;;;;;;;;;;;;;;;5083411;28;19955;-68
2021/12/26 12:11:24;;;;;;;;;;;;;;;;;;5081710;28;19928;-69
2021/12/26 12:13:54;;;;;;;;;;;;;;;;;;5085398;28;19992;-67
2021/12/26 12:16:23;;;;;;;;;;;;;;;;;;5082079;28;20117;-70
2021/12/26 12:18:53;;;;;;;;;;;;;;;;;;5084023;28;20369;-70
2021/12/26 12:21:20;;;;;;;;;;;;;;;;;;5081279;28;19942;-70
2021/12/26 12:23:51;;;;;;;;;;;;;;;;;;5084163;28;19965;-71
2021/12/26 12:26:33;;;;;;;;;;;;;;;;;;5083778;28;20016;-70
2021/12/26 12:29:03;;;;;;;;;;;;;;;;;;5076120;28;19935;-70
2021/12/26 12:31:34;;;;;;;;;;;;;;;;;;5082151;28;19931;-71
2021/12/26 12:34:03;;;;;;;;;;;;;;;;;;5082120;28;19932;-70
2021/12/26 12:36:34;;;;;;;;;;;;;;;;;;5074331;28;20334;-70
2021/12/26 12:39:04;;;;;;;;;;;;;;;;;;5082413;28;20314;-70
2021/12/26 12:41:35;;;;;;;;;;;;;;;;;;5068178;28;19932;-70
2021/12/26 12:44:06;;;;;;;;;;;;;;;;;;5084612;28;20319;-71
2021/12/26 12:46:36;;;;;;;;;;;;;;;;;;5084006;28;20308;-71
2021/12/26 12:49:06;;;;;;;;;;;;;;;;;;5079046;28;20415;-71
2021/12/26 12:51:36;;;;;;;;;;;;;;;;;;5080871;28;19924;-67
2021/12/26 12:54:04;;;;;;;;;;;;;;;;;;5081459;28;19928;-67
2021/12/26 12:56:44;;;;;;;;;;;;;;;;;;5084246;28;20063;-67
2021/12/26 12:59:14;;;;;;;;;;;;;;;;;;5083275;28;20309;-67
2021/12/26 13:01:49;;;;;;;;;;;;;;;;;;5084085;28;19940;-71
2021/12/26 13:04:17;;;;;;;;;;;;;;;;;;5078865;28;19985;-71
2021/12/26 13:06:47;;;;;;;;;;;;;;;;;;5083723;28;20041;-71
2021/12/26 13:09:15;;;;;;;;;;;;;;;;;;5085716;28;19932;-71
2021/12/26 13:11:45;;;;;;;;;;;;;;;;;;5081386;28;19928;-71
2021/12/26 13:14:16;;;;;;;;;;;;;;;;;;5060218;28;20079;-71
2021/12/26 13:16:48;;;;;;;;;;;;;;;;;;5050463;28;19993;-71
2021/12/26 13:19:15;;;;;;;;;;;;;;;;;;5051847;28;19935;-71
2021/12/26 13:21:50;;;;;;;;;;;;;;;;;;5066084;28;19940;-67
2021/12/26 13:24:18;;;;;;;;;;;;;;;;;;5063474;28;19953;-67
2021/12/26 13:26:47;;;;;;;;;;;;;;;;;;5061895;28;19933;-71
2021/12/26 13:29:17;;;;;;;;;;;;;;;;;;5066435;28;20450;-71
2021/12/26 13:31:44;;;;;;;;;;;;;;;;;;5065827;28;19936;-67
2021/12/26 13:34:13;;;;;;;;;;;;;;;;;;5059030;28;19936;-67
2021/12/26 13:36:50;;;;;;;;;;;;;;;;;;5066310;28;19924;-67
2021/12/26 13:39:21;;;;;;;;;;;;;;;;;;5057467;28;19932;-67
2021/12/26 13:41:53;;;;;;;;;;;;;;;;;;5065604;28;19932;-71
2021/12/26 13:44:35;;;;;;;;;;;;;;;;;;5066384;28;19960;-71
2021/12/26 13:47:03;;;;;;;;;;;;;;;;;;5056942;28;19935;-70
2021/12/26 13:49:32;;;;;;;;;;;;;;;;;;5063137;28;20011;-71
2021/12/26 13:52:01;;;;;;;;;;;;;;;;;;5065061;28;20409;-71
2021/12/26 13:54:38;;;;;;;;;;;;;;;;;;5067084;28;19989;-71
2021/12/26 13:57:09;;;;;;;;;;;;;;;;;;5067611;28;19952;-67
2021/12/26 13:59:41;;;;;;;;;;;;;;;;;;5065002;28;19981;-67
2021/12/26 14:02:12;;;;;;;;;;;;;;;;;;5062106;28;19924;-67
2021/12/26 14:04:42;;;;;;;;;;;;;;;;;;5066785;28;19932;-67
2021/12/26 14:07:11;;;;;;;;;;;;;;;;;;5069777;28;19947;-71
2021/12/26 14:09:42;;;;;;;;;;;;;;;;;;5067896;28;19943;-71
2021/12/26 14:12:14;;;;;;;;;;;;;;;;;;5066574;28;19924;-67
2021/12/26 14:14:48;;;;;;;;;;;;;;;;;;5061809;28;20019;-67
2021/12/26 14:17:16;;;;;;;;;;;;;;;;;;5064511;28;20402;-71
2021/12/26 14:19:51;;;;;;;;;;;;;;;;;;5067517;28;19936;-71
2021/12/26 14:22:21;;;;;;;;;;;;;;;;;;5053670;28;19970;-71
2021/12/26 14:24:52;;;;;;;;;;;;;;;;;;5065077;28;20004;-71
2021/12/26 14:27:23;;;;;;;;;;;;;;;;;;5071348;28;19929;-67
2021/12/26 14:29:51;;;;;;;;;;;;;;;;;;5045109;28;19924;-67
2021/12/26 14:32:19;;;;;;;;;;;;;;;;;;5081478;28;20311;-67
2021/12/26 14:34:51;;;;;;;;;;;;;;;;;;5070079;28;19990;-67
2021/12/26 14:37:21;;;;;;;;;;;;;;;;;;5041782;28;19932;-70
2021/12/26 14:39:53;;;;;;;;;;;;;;;;;;5056057;28;19924;-71
2021/12/26 14:42:26;;;;;;;;;;;;;;;;;;5048610;28;20036;-71
2021/12/26 14:45:00;;;;;;;;;;;;;;;;;;5065569;28;20019;-71
2021/12/26 14:47:41;;;;;;;;;;;;;;;;;;5051113;28;19972;-71
2021/12/26 14:50:30;;;;;;;;;;;;;;;;;;5062878;28;19924;-71
2021/12/26 14:53:18;;;;;;;;;;;;;;;;;;5066859;28;20383;-71
2021/12/26 14:55:48;;;;;;;;;;;;;;;;;;5066095;28;19951;-71
2021/12/26 14:58:19;;;;;;;;;;;;;;;;;;5065544;28;19980;-71
2021/12/26 15:00:51;;;;;;;;;;;;;;;;;;5065402;28;20366;-68
2021/12/26 15:03:26;;;;;;;;;;;;;;;;;;5065379;28;19924;-68
2021/12/26 15:06:02;;;;;;;;;;;;;;;;;;5060845;28;20022;-67
2021/12/26 15:08:31;;;;;;;;;;;;;;;;;;5050968;28;19924;-68
2021/12/26 15:11:02;;;;;;;;;;;;;;;;;;5065275;28;19929;-71
2021/12/26 15:13:36;;;;;;;;;;;;;;;;;;5077872;28;19972;-71
2021/12/26 15:16:06;;;;;;;;;;;;;;;;;;5085040;28;19924;-69
2021/12/26 15:18:35;;;;;;;;;;;;;;;;;;5088240;28;19939;-68
2021/12/26 15:21:11;;;;;;;;;;;;;;;;;;5071457;28;20560;-69
2021/12/26 15:23:42;;;;;;;;;;;;;;;;;;5085971;28;19924;-69
2021/12/26 15:26:14;;;;;;;;;;;;;;;;;;5081286;28;20396;-72
2021/12/26 15:28:46;;;;;;;;;;;;;;;;;;5085494;28;19939;-72
2021/12/26 15:31:29;;;;;;;;;;;;;;;;;;5064604;28;19924;-72
2021/12/26 15:33:58;;;;;;;;;;;;;;;;;;5082730;28;19942;-71
2021/12/26 15:36:25;;;;;;;;;;;;;;;;;;5093124;28;20011;-69
2021/12/26 15:38:54;;;;;;;;;;;;;;;;;;5083242;28;20420;-69
2021/12/26 15:41:24;;;;;;;;;;;;;;;;;;5096879;28;19983;-69
2021/12/26 15:43:58;;;;;;;;;;;;;;;;;;5084945;28;19932;-68
2021/12/26 15:46:28;;;;;;;;;;;;;;;;;;5094917;28;19931;-69
2021/12/26 15:49:00;;;;;;;;;;;;;;;;;;5079332;28;20019;-68
2021/12/26 15:51:31;;;;;;;;;;;;;;;;;;5071167;28;19924;-68
2021/12/26 15:54:01;;;;;;;;;;;;;;;;;;5084063;28;19928;-69
2021/12/26 15:56:30;;;;;;;;;;;;;;;;;;5085001;28;19924;-69
2021/12/26 15:59:01;;;;;;;;;;;;;;;;;;5087517;28;19935;-68
2021/12/26 16:01:29;;;;;;;;;;;;;;;;;;5088146;28;19924;-69
2021/12/26 16:04:01;;;;;;;;;;;;;;;;;;5081879;28;20050;-68
2021/12/26 16:06:32;;;;;;;;;;;;;;;;;;5085158;28;19923;-68
2021/12/26 16:09:07;;;;;;;;;;;;;;;;;;5087221;28;20674;-68
2021/12/26 16:11:35;;;;;;;;;;;;;;;;;;5088203;28;19924;-68
2021/12/26 16:14:05;;;;;;;;;;;;;;;;;;5083065;28;19932;-69
2021/12/26 16:16:33;;;;;;;;;;;;;;;;;;5088756;28;20361;-68
2021/12/26 16:19:04;;;;;;;;;;;;;;;;;;5086021;28;19932;-68
2021/12/26 16:21:38;;;;;;;;;;;;;;;;;;5086749;28;19924;-68
2021/12/26 16:24:10;;;;;;;;;;;;;;;;;;5084090;28;19936;-68
2021/12/26 16:26:42;;;;;;;;;;;;;;;;;;5063039;28;19957;-68
2021/12/26 16:29:13;;;;;;;;;;;;;;;;;;5084351;28;19923;-68
2021/12/26 16:31:47;;;;;;;;;;;;;;;;;;5078348;28;19928;-68
2021/12/26 16:34:18;;;;;;;;;;;;;;;;;;5084619;28;19947;-68
2021/12/26 16:36:47;;;;;;;;;;;;;;;;;;5090428;28;19930;-68
2021/12/26 16:39:16;;;;;;;;;;;;;;;;;;5082239;28;20401;-68
2021/12/26 16:41:49;;;;;;;;;;;;;;;;;;5084092;28;20004;-68
2021/12/26 16:44:20;;;;;;;;;;;;;;;;;;5084535;28;19924;-68
2021/12/26 16:46:52;;;;;;;;;;;;;;;;;;5087401;28;19928;-68
2021/12/26 16:49:19;;;;;;;;;;;;;;;;;;5084588;28;19932;-68
2021/12/26 16:51:51;;;;;;;;;;;;;;;;;;5083647;28;19924;-68
2021/12/26 16:54:25;;;;;;;;;;;;;;;;;;5083581;28;19925;-68
2021/12/26 16:57:01;;;;;;;;;;;;;;;;;;5077182;28;20559;-68
2021/12/26 16:59:36;;;;;;;;;;;;;;;;;;5070235;28;20006;-68
2021/12/26 17:02:05;;;;;;;;;;;;;;;;;;5081794;28;19936;-68
2021/12/26 17:04:33;;;;;;;;;;;;;;;;;;5078054;28;19951;-68
2021/12/26 17:07:03;;;;;;;;;;;;;;;;;;5081369;28;20261;-68
2021/12/26 17:09:32;;;;;;;;;;;;;;;;;;5076917;28;19928;-68
2021/12/26 17:12:00;;;;;;;;;;;;;;;;;;5057161;28;19946;-67
2021/12/26 17:14:29;;;;;;;;;;;;;;;;;;5057369;28;19937;-67